METAR Data
IDs: Format: Raw Decoded Include TAF

Data at: 1210 UTC 21 Nov 2018

KMQY 211207Z AUTO 00000KT 6SM BR BKN001 M04/M06 A3037 RMK AO2